KCLM

William R Fairchild International Airport

Port Angeles, Washington, USA
METAR KCLM 231553Z AUTO 24005KT 10SM OVC080 M01/M08 A3035 RMK AO2 SLP283 T10111078
Observed Flight Rules
Feb-23 @ 15:53 UTC (42 minutes ago) Visual Flight Rules
Wind Visibility Clouds
240° at 5 knots 10 miles
  • Overcast at 8,000' AGL
Temperatures Readings
Current -1°C / 30°F
Dewpoint -8°C / 18°F
Humidity 59%
Altimeter 30.35" Hg
Pressure 1028.3 hPa
Elevation 85
METAR KCLM 231553Z AUTO 24005KT 10SM OVC080 M01/M08 A3035 RMK AO2 SLP283 T10111078
Observed Flight Rules
Feb-23 @ 15:53 UTC
(42 minutes ago)
VFR
Wind Visibility
240° at 5 knots 10 miles
Clouds
  • Overcast at 8,000' AGL
Temperature Dewpoint
-1°C / 30°F -8°C / 18°F
Humidity Altimeter Pressure
59% 30.35" Hg 1028.3 hPa